KSHD/SHD METAR and TAF weather

Enter ICAO airport designator
Station Type Date Time Source
KSHD METAR 2023/01/30 10:55 UTC NOAA

KSHD 301055Z AUTO 00000KT 5SM BR CLR 03/03 A3015 RMK AO2 T00320030


Station Type Date Time Source
KSHD Decoded METAR 2023/01/30 10:55 UTC NOAA

Staunton / Shenandoah, VA, United States (KSHD) 38-16N 078-54W
Jan 30, 2023 - 05:55 AM EST / 2023.01.30 1055 UTC
Wind: Calm:0
Visibility: 5 mile(s):0
Sky conditions: clear
Weather: mist
Temperature: 37.8 F (3.2 C)
Dew Point: 37.4 F (3.0 C)
Relative Humidity: 98%
Pressure (altimeter): 30.15 in. Hg (1020 hPa)
ob: KSHD 301055Z AUTO 00000KT 5SM BR CLR 03/03 A3015 RMK AO2 T00320030
cycle: 11

Station Type Date Time Source
KSHD TAF UTC NOAA

Error!

Example: see airport list